createdAt,value
2022-09-30T00:01:19.431Z,15.23
2022-09-30T00:03:48.323Z,11.40
2022-09-30T00:06:16.845Z,11.75
2022-09-30T00:08:44.934Z,10.20
2022-09-30T00:11:16.371Z,9.20
2022-09-30T00:13:45.712Z,10.20
2022-09-30T00:16:17.016Z,10.95
2022-09-30T00:18:45.962Z,9.63
2022-09-30T00:21:16.107Z,12.73
2022-09-30T00:23:45.414Z,10.48
2022-09-30T00:26:16.449Z,13.50
2022-09-30T00:28:46.049Z,10.60
2022-09-30T00:31:17.833Z,10.73
2022-09-30T00:34:06.238Z,9.25
2022-09-30T00:36:35.484Z,11.73
2022-09-30T00:39:04.829Z,11.63
2022-09-30T00:41:32.903Z,11.70
2022-09-30T00:44:01.091Z,9.90
2022-09-30T00:46:38.955Z,9.88
2022-09-30T00:49:15.163Z,10.60
2022-09-30T00:51:46.600Z,10.23
2022-09-30T00:54:19.063Z,10.60
2022-09-30T00:56:51.321Z,14.80
2022-09-30T00:59:22.797Z,12.57
2022-09-30T01:01:52.817Z,9.20
2022-09-30T01:04:22.862Z,11.10
2022-09-30T01:06:51.287Z,12.68
2022-09-30T01:09:20.422Z,14.65
2022-09-30T01:11:49.219Z,14.20
2022-09-30T01:14:19.794Z,14.35
2022-09-30T01:17:00.238Z,15.73
2022-09-30T01:19:44.782Z,13.95
2022-09-30T01:22:41.954Z,10.95
2022-09-30T01:25:53.616Z,10.88
2022-09-30T01:28:46.676Z,9.85
2022-09-30T01:31:36.816Z,11.65
2022-09-30T01:34:12.327Z,11.13
2022-09-30T01:36:54.341Z,13.05
2022-09-30T01:39:30.895Z,10.57
2022-09-30T01:42:10.068Z,11.25
2022-09-30T01:44:47.645Z,12.73
2022-09-30T01:47:23.041Z,13.50
2022-09-30T01:49:58.758Z,10.68
2022-09-30T01:52:33.813Z,10.63
2022-09-30T01:55:07.047Z,11.25
2022-09-30T01:57:43.026Z,12.05
2022-09-30T02:00:12.576Z,16.67
2022-09-30T02:02:49.117Z,14.55
2022-09-30T02:05:21.831Z,10.98
2022-09-30T02:07:55.841Z,12.50
2022-09-30T02:10:28.530Z,11.40
2022-09-30T02:13:03.442Z,10.45
2022-09-30T02:15:40.379Z,10.43
2022-09-30T02:18:17.167Z,10.68
2022-09-30T02:20:48.477Z,12.52
2022-09-30T02:23:21.163Z,14.43
2022-09-30T02:25:55.204Z,14.65
2022-09-30T02:28:27.080Z,12.20
2022-09-30T02:30:59.098Z,13.85
2022-09-30T02:33:34.086Z,10.73
2022-09-30T02:36:06.956Z,11.63
2022-09-30T02:38:40.485Z,12.60
2022-09-30T02:41:13.180Z,10.27
2022-09-30T02:43:42.183Z,11.70
2022-09-30T02:46:19.581Z,12.43
2022-09-30T02:48:58.160Z,10.07
2022-09-30T02:51:39.512Z,10.27
2022-09-30T02:54:19.104Z,10.07
2022-09-30T02:56:55.154Z,11.77
2022-09-30T02:59:24.630Z,14.30
2022-09-30T03:01:52.945Z,12.40
2022-09-30T03:04:25.939Z,15.52
2022-09-30T03:06:54.055Z,15.40
2022-09-30T03:09:27.061Z,10.93
2022-09-30T03:12:02.415Z,9.23
2022-09-30T03:14:46.534Z,12.48
2022-09-30T03:17:39.505Z,12.85
2022-09-30T03:20:20.837Z,12.75
2022-09-30T03:23:18.623Z,12.07
2022-09-30T03:25:57.432Z,12.35
2022-09-30T03:28:30.592Z,11.25
2022-09-30T03:31:06.680Z,11.90
2022-09-30T03:33:42.639Z,10.63
2022-09-30T03:36:21.498Z,11.35
2022-09-30T03:38:57.746Z,11.77
2022-09-30T03:41:31.078Z,8.70
2022-09-30T03:44:03.248Z,11.82
2022-09-30T03:46:36.962Z,14.32
2022-09-30T03:49:09.757Z,11.05
2022-09-30T03:51:40.481Z,10.43
2022-09-30T03:54:10.158Z,12.18
2022-09-30T03:56:42.053Z,16.45
2022-09-30T03:59:13.054Z,10.70
2022-09-30T04:01:41.144Z,11.30
2022-09-30T04:04:09.433Z,11.43
2022-09-30T04:06:38.763Z,11.20
2022-09-30T04:09:07.067Z,11.10
2022-09-30T04:11:35.120Z,10.38
2022-09-30T04:14:03.538Z,9.35
2022-09-30T04:16:31.907Z,13.70
2022-09-30T04:18:59.991Z,12.25
2022-09-30T04:21:29.195Z,11.63
2022-09-30T04:23:58.627Z,13.52
2022-09-30T04:26:26.709Z,10.32
2022-09-30T04:28:58.141Z,12.15
2022-09-30T04:31:26.371Z,10.88
2022-09-30T04:33:56.984Z,9.00
2022-09-30T04:36:25.112Z,11.30
2022-09-30T04:38:53.588Z,9.40
2022-09-30T04:41:23.213Z,12.13
2022-09-30T04:43:51.392Z,10.75
2022-09-30T04:46:22.612Z,11.00
2022-09-30T04:48:51.222Z,9.70
2022-09-30T04:51:21.031Z,10.63
2022-09-30T04:53:50.117Z,10.60
2022-09-30T04:56:18.348Z,13.82
2022-09-30T04:58:47.916Z,10.70
2022-09-30T05:01:17.381Z,9.90
2022-09-30T05:03:45.569Z,12.82
2022-09-30T05:06:14.203Z,10.25
2022-09-30T05:08:46.169Z,13.60
2022-09-30T05:11:18.582Z,13.80
2022-09-30T05:13:48.718Z,12.75
2022-09-30T05:16:18.166Z,12.93
2022-09-30T05:18:46.948Z,13.40
2022-09-30T05:21:16.825Z,13.68
2022-09-30T05:23:44.927Z,16.02
2022-09-30T05:26:13.379Z,11.65
2022-09-30T05:28:41.758Z,12.27
2022-09-30T05:31:12.293Z,11.18
2022-09-30T05:33:41.818Z,11.00
2022-09-30T05:36:13.026Z,10.50
2022-09-30T05:38:40.953Z,10.32
2022-09-30T05:41:11.338Z,9.75
2022-09-30T05:43:39.870Z,13.25
2022-09-30T05:46:08.078Z,9.98
2022-09-30T05:48:37.542Z,10.40
2022-09-30T05:51:05.672Z,10.73
2022-09-30T05:53:38.212Z,10.65
2022-09-30T05:56:07.220Z,8.85
2022-09-30T05:58:35.569Z,8.27
2022-09-30T06:01:13.120Z,11.27
2022-09-30T06:03:43.798Z,11.98
2022-09-30T06:06:12.855Z,9.93
2022-09-30T06:08:41.420Z,10.82
2022-09-30T06:11:12.349Z,10.07
2022-09-30T06:13:41.299Z,10.38
2022-09-30T06:16:10.603Z,10.65
2022-09-30T06:18:41.231Z,8.52
2022-09-30T06:21:13.203Z,12.55
2022-09-30T06:23:41.558Z,10.80
2022-09-30T06:26:11.811Z,7.75
2022-09-30T06:28:40.173Z,7.60
2022-09-30T06:31:08.217Z,8.73
2022-09-30T06:33:36.683Z,7.93
2022-09-30T06:36:06.667Z,7.20
2022-09-30T06:38:38.204Z,8.18
2022-09-30T06:41:06.535Z,13.38
2022-09-30T06:43:42.060Z,8.05
2022-09-30T06:46:29.850Z,7.55
2022-09-30T06:49:23.595Z,8.60
2022-09-30T06:51:47.355Z,7.18
2022-09-30T06:54:16.754Z,6.97
2022-09-30T06:56:45.577Z,8.65
2022-09-30T06:59:16.655Z,11.80
2022-09-30T07:01:45.330Z,7.45
2022-09-30T07:04:13.422Z,9.93
2022-09-30T07:06:42.019Z,9.50
2022-09-30T07:09:11.890Z,7.55
2022-09-30T07:11:41.419Z,8.68
2022-09-30T07:14:10.194Z,9.05
2022-09-30T07:16:38.617Z,10.85
2022-09-30T07:19:08.978Z,10.45
2022-09-30T07:21:37.067Z,6.78
2022-09-30T07:24:05.611Z,7.53
2022-09-30T07:26:33.959Z,7.75
2022-09-30T07:29:03.666Z,5.85
2022-09-30T07:31:33.705Z,10.02
2022-09-30T07:34:03.996Z,7.05
2022-09-30T07:36:33.995Z,7.57
2022-09-30T07:39:05.970Z,8.48
2022-09-30T07:41:37.759Z,5.25
2022-09-30T07:44:10.279Z,8.32
2022-09-30T07:46:40.426Z,12.40
2022-09-30T07:49:12.473Z,5.20
2022-09-30T07:51:46.633Z,3.78
2022-09-30T07:54:16.987Z,6.07
2022-09-30T07:57:09.361Z,4.88
2022-09-30T07:59:37.798Z,8.93
2022-09-30T08:02:07.440Z,5.60
2022-09-30T08:04:39.142Z,5.22
2022-09-30T08:07:10.192Z,7.65
2022-09-30T08:09:38.666Z,10.15
2022-09-30T08:12:06.752Z,8.75
2022-09-30T08:14:36.372Z,7.20
2022-09-30T08:17:04.693Z,7.20
2022-09-30T08:19:34.353Z,4.20
2022-09-30T08:24:31.397Z,6.20
2022-09-30T08:26:59.852Z,6.47
2022-09-30T08:29:53.966Z,5.63
2022-09-30T08:32:18.488Z,5.63
2022-09-30T08:34:46.525Z,6.25
2022-09-30T08:37:14.762Z,5.45
2022-09-30T08:39:43.635Z,8.10
2022-09-30T08:42:41.618Z,4.57
2022-09-30T08:45:21.394Z,4.57
2022-09-30T08:47:58.215Z,5.30
2022-09-30T08:50:34.473Z,4.88
2022-09-30T08:53:07.108Z,5.40
2022-09-30T08:55:41.540Z,7.35
2022-09-30T08:58:17.879Z,3.70
2022-09-30T09:00:46.290Z,8.07
2022-09-30T09:03:20.354Z,4.72
2022-09-30T09:05:58.401Z,4.50
2022-09-30T09:08:35.131Z,3.92
2022-09-30T09:11:09.178Z,4.43
2022-09-30T09:13:47.585Z,3.03
2022-09-30T09:16:23.808Z,3.63
2022-09-30T09:19:00.737Z,4.97
2022-09-30T09:21:40.526Z,4.47
2022-09-30T09:24:19.001Z,3.67
2022-09-30T09:26:48.962Z,2.65
2022-09-30T09:29:27.311Z,5.28
2022-09-30T09:31:55.888Z,2.63
2022-09-30T09:34:27.061Z,4.80
2022-09-30T09:37:07.526Z,2.45
2022-09-30T09:40:04.607Z,2.97
2022-09-30T09:42:48.797Z,2.75
2022-09-30T09:45:24.973Z,2.45
2022-09-30T09:47:53.556Z,2.92
2022-09-30T09:50:32.812Z,3.90
2022-09-30T09:53:27.584Z,1.67
2022-09-30T09:55:59.245Z,3.13
2022-09-30T09:58:28.136Z,2.33
2022-09-30T10:01:32.084Z,3.47
2022-09-30T10:04:19.566Z,30.60
2022-09-30T10:06:59.918Z,4.00
2022-09-30T10:09:32.242Z,3.05
2022-09-30T10:12:28.278Z,2.92
2022-09-30T10:15:03.203Z,2.95
2022-09-30T10:17:33.341Z,2.90
2022-09-30T10:20:07.533Z,4.65
2022-09-30T10:22:38.306Z,3.92
2022-09-30T10:25:28.118Z,3.38
2022-09-30T10:27:59.092Z,4.93
2022-09-30T10:30:39.712Z,3.92
2022-09-30T10:33:22.557Z,3.58
2022-09-30T10:35:57.295Z,3.38
2022-09-30T10:38:29.746Z,3.45
2022-09-30T10:40:58.162Z,6.43
2022-09-30T10:43:31.105Z,3.40
2022-09-30T10:46:24.416Z,3.38
2022-09-30T10:48:57.981Z,3.53
2022-09-30T10:51:30.272Z,4.55
2022-09-30T10:53:59.679Z,3.22
2022-09-30T10:56:44.052Z,2.35
2022-09-30T10:59:26.461Z,3.50
2022-09-30T11:02:00.869Z,2.05
2022-09-30T11:04:37.643Z,4.95
2022-09-30T11:07:16.287Z,5.57
2022-09-30T11:09:52.875Z,3.58
2022-09-30T11:12:27.356Z,4.15
2022-09-30T11:15:04.401Z,6.97
2022-09-30T11:17:39.589Z,7.63
2022-09-30T11:20:16.547Z,5.25
2022-09-30T11:22:51.711Z,2.92
2022-09-30T11:25:26.212Z,3.88
2022-09-30T11:28:10.345Z,2.78
2022-09-30T11:30:50.299Z,7.03
2022-09-30T11:33:32.985Z,3.05
2022-09-30T11:36:09.732Z,2.70
2022-09-30T11:38:53.552Z,5.38
2022-09-30T11:41:29.826Z,3.00
2022-09-30T11:44:06.704Z,6.85
2022-09-30T11:46:49.378Z,3.75
2022-09-30T11:49:44.586Z,3.78
2022-09-30T11:52:19.862Z,5.88
2022-09-30T11:55:15.371Z,2.55
2022-09-30T11:57:51.434Z,5.88
2022-09-30T12:00:20.718Z,4.65
2022-09-30T12:02:52.552Z,4.38
2022-09-30T12:05:25.284Z,4.38
2022-09-30T12:07:59.780Z,5.07
2022-09-30T12:10:33.995Z,2.92
2022-09-30T12:13:07.219Z,2.47
2022-09-30T12:15:36.802Z,9.15
2022-09-30T12:18:10.786Z,3.95
2022-09-30T12:20:43.570Z,4.70
2022-09-30T12:23:19.158Z,4.07
2022-09-30T12:25:52.101Z,4.70
2022-09-30T12:28:48.261Z,2.65
2022-09-30T12:31:38.683Z,5.53
2022-09-30T12:34:22.124Z,3.67
2022-09-30T12:37:02.493Z,3.95
2022-09-30T12:39:51.516Z,6.07
2022-09-30T12:42:33.310Z,3.90
2022-09-30T12:45:45.881Z,4.47
2022-09-30T12:48:17.828Z,3.50
2022-09-30T12:50:52.762Z,2.97
2022-09-30T12:53:25.321Z,5.38
2022-09-30T12:55:54.548Z,4.57
2022-09-30T12:58:30.600Z,2.88
2022-09-30T13:01:08.019Z,3.40
2022-09-30T13:03:48.740Z,2.65
2022-09-30T13:06:20.861Z,5.25
2022-09-30T13:09:05.306Z,3.22
2022-09-30T13:11:40.280Z,3.33
2022-09-30T13:14:34.841Z,2.73
2022-09-30T13:17:36.523Z,5.38
2022-09-30T13:20:44.765Z,3.55
2022-09-30T13:23:50.049Z,5.18
2022-09-30T13:26:35.796Z,3.38
2022-09-30T13:29:34.956Z,2.30
2022-09-30T13:32:10.560Z,4.60
2022-09-30T13:34:57.944Z,4.57
2022-09-30T13:37:36.494Z,3.45
2022-09-30T13:40:15.500Z,3.78
2022-09-30T13:42:52.553Z,3.28
2022-09-30T13:45:27.691Z,4.55
2022-09-30T13:48:10.990Z,4.65
2022-09-30T13:50:46.632Z,4.38
2022-09-30T13:53:20.965Z,3.80
2022-09-30T13:55:53.870Z,3.60
2022-09-30T13:58:49.839Z,4.80
2022-09-30T14:01:34.910Z,4.57
2022-09-30T14:04:51.674Z,5.40
2022-09-30T14:07:33.069Z,11.50
2022-09-30T14:10:20.364Z,2.67
2022-09-30T14:13:07.120Z,4.40
2022-09-30T14:16:06.551Z,7.50
2022-09-30T14:19:08.417Z,3.53
2022-09-30T14:21:39.394Z,10.82
2022-09-30T14:24:13.336Z,4.18
2022-09-30T14:27:11.527Z,7.22
2022-09-30T14:29:50.231Z,3.45
2022-09-30T14:32:22.094Z,6.60
2022-09-30T14:34:50.734Z,3.78
2022-09-30T14:37:26.248Z,2.72
2022-09-30T14:39:54.497Z,9.07
2022-09-30T14:42:29.634Z,3.55
2022-09-30T14:45:04.687Z,4.00
2022-09-30T14:47:37.704Z,4.15
2022-09-30T14:50:11.901Z,3.75
2022-09-30T14:52:44.160Z,5.05
2022-09-30T14:55:23.710Z,4.53
2022-09-30T14:57:51.844Z,2.78
2022-09-30T15:00:33.691Z,7.75
2022-09-30T15:03:02.388Z,4.75
2022-09-30T15:05:30.492Z,2.80
2022-09-30T15:07:59.627Z,3.35
2022-09-30T15:10:29.174Z,2.65
2022-09-30T15:12:57.173Z,2.83
2022-09-30T15:15:34.677Z,4.82
2022-09-30T15:18:17.785Z,6.88
2022-09-30T15:20:45.985Z,3.35
2022-09-30T15:23:20.543Z,4.15
2022-09-30T15:25:49.102Z,3.13
2022-09-30T15:28:17.345Z,3.63
2022-09-30T15:30:46.954Z,3.83
2022-09-30T15:33:18.928Z,4.68
2022-09-30T15:35:47.198Z,2.95
2022-09-30T15:38:21.476Z,2.65
2022-09-30T15:40:59.272Z,3.17
2022-09-30T15:43:39.852Z,2.88
2022-09-30T15:46:28.125Z,4.25
2022-09-30T15:48:58.581Z,5.18
2022-09-30T15:51:39.600Z,3.95
2022-09-30T15:54:35.721Z,4.35
2022-09-30T15:57:25.439Z,3.85
2022-09-30T16:00:02.165Z,4.85
2022-09-30T16:02:34.017Z,5.55
2022-09-30T16:05:03.873Z,7.20
2022-09-30T16:07:32.750Z,3.70
2022-09-30T16:10:00.941Z,3.45
2022-09-30T16:12:33.703Z,4.55
2022-09-30T16:15:08.063Z,3.35
2022-09-30T16:17:39.626Z,3.13
2022-09-30T16:20:21.510Z,6.60
2022-09-30T16:22:52.347Z,4.65
2022-09-30T16:25:24.025Z,4.18
2022-09-30T16:27:57.733Z,3.28
2022-09-30T16:30:26.096Z,3.55
2022-09-30T16:32:59.173Z,6.22
2022-09-30T16:35:28.858Z,4.50
2022-09-30T16:38:01.779Z,5.50
2022-09-30T16:40:32.063Z,3.05
2022-09-30T16:43:03.206Z,4.00
2022-09-30T16:45:34.950Z,5.28
2022-09-30T16:48:12.860Z,4.00
2022-09-30T16:50:44.023Z,5.97
2022-09-30T16:53:12.243Z,9.20
2022-09-30T16:55:40.376Z,5.60
2022-09-30T16:58:11.659Z,4.57
2022-09-30T17:00:42.729Z,5.72
2022-09-30T17:03:14.210Z,3.63
2022-09-30T17:05:43.077Z,7.13
2022-09-30T17:08:14.695Z,4.25
2022-09-30T17:10:45.309Z,6.00
2022-09-30T17:13:15.568Z,5.80
2022-09-30T17:15:44.723Z,6.82
2022-09-30T17:18:19.448Z,4.93
2022-09-30T17:20:52.459Z,5.05
2022-09-30T17:23:21.530Z,5.18
2022-09-30T17:25:49.784Z,4.43
2022-09-30T17:28:18.272Z,5.38
2022-09-30T17:30:48.133Z,7.32
2022-09-30T17:33:17.811Z,5.95
2022-09-30T17:35:45.843Z,4.65
2022-09-30T17:38:15.022Z,4.68
2022-09-30T17:41:00.334Z,7.40
2022-09-30T17:43:28.410Z,7.38
2022-09-30T17:46:00.628Z,6.65
2022-09-30T17:48:30.248Z,7.80
2022-09-30T17:51:00.005Z,5.57
2022-09-30T17:53:29.309Z,5.45
2022-09-30T17:56:04.022Z,17.35
2022-09-30T17:58:32.055Z,52.47
2022-09-30T18:01:00.113Z,28.00
2022-09-30T18:03:29.677Z,12.80
2022-09-30T18:06:01.019Z,5.90
2022-09-30T18:08:29.718Z,8.20
2022-09-30T18:10:58.119Z,7.72
2022-09-30T18:13:26.180Z,7.47
2022-09-30T18:15:54.831Z,6.93
2022-09-30T18:18:23.133Z,9.55
2022-09-30T18:20:52.599Z,10.30
2022-09-30T18:23:20.609Z,11.07
2022-09-30T18:25:49.673Z,8.00
2022-09-30T18:28:19.354Z,11.48
2022-09-30T18:30:47.572Z,11.77
2022-09-30T18:33:17.434Z,8.63
2022-09-30T18:35:46.503Z,8.82
2022-09-30T18:38:16.229Z,9.73
2022-09-30T18:40:45.807Z,7.82
2022-09-30T18:43:15.542Z,13.38
2022-09-30T18:45:44.220Z,9.77
2022-09-30T18:48:12.515Z,10.40
2022-09-30T18:50:40.466Z,10.77
2022-09-30T18:53:10.081Z,8.27
2022-09-30T18:55:39.870Z,11.23
2022-09-30T18:58:07.985Z,10.80
2022-09-30T19:00:36.269Z,10.50
2022-09-30T19:03:04.372Z,9.23
2022-09-30T19:05:32.311Z,10.63
2022-09-30T19:08:00.374Z,8.82
2022-09-30T19:10:28.394Z,10.25
2022-09-30T19:12:57.732Z,10.50
2022-09-30T19:15:25.685Z,11.52
2022-09-30T19:17:53.867Z,10.38
2022-09-30T19:20:22.637Z,9.70
2022-09-30T19:22:51.942Z,9.75
2022-09-30T19:25:20.096Z,15.13
2022-09-30T19:27:49.573Z,10.65
2022-09-30T19:30:20.904Z,10.05
2022-09-30T19:32:49.678Z,11.70
2022-09-30T19:35:18.992Z,11.43
2022-09-30T19:37:58.233Z,14.13
2022-09-30T19:43:00.041Z,11.45
2022-09-30T19:45:29.424Z,13.13
2022-09-30T19:47:59.387Z,11.48
2022-09-30T19:50:27.342Z,11.88
2022-09-30T19:52:57.585Z,12.27
2022-09-30T19:55:26.467Z,11.65
2022-09-30T19:57:54.554Z,10.88
2022-09-30T20:00:22.709Z,11.60
2022-09-30T20:02:52.702Z,12.85
2022-09-30T20:05:22.222Z,10.63
2022-09-30T20:07:51.556Z,13.57
2022-09-30T20:10:19.896Z,11.55
2022-09-30T20:12:47.883Z,14.57
2022-09-30T20:15:33.642Z,14.27
2022-09-30T20:18:02.943Z,11.57
2022-09-30T20:20:37.118Z,12.80
2022-09-30T20:23:05.354Z,11.85
2022-09-30T20:25:35.522Z,13.52
2022-09-30T20:28:04.784Z,10.45
2022-09-30T20:30:33.870Z,11.55
2022-09-30T20:33:03.184Z,12.32
2022-09-30T20:35:31.165Z,13.48
2022-09-30T20:37:59.113Z,15.88
2022-09-30T20:40:27.055Z,13.40
2022-09-30T20:42:59.321Z,12.93
2022-09-30T20:45:29.273Z,12.65
2022-09-30T20:47:57.423Z,22.08
2022-09-30T20:50:39.334Z,13.57
2022-09-30T20:53:09.974Z,17.05
2022-09-30T20:55:39.754Z,13.13
2022-09-30T20:58:09.012Z,15.27
2022-09-30T21:00:39.857Z,14.02
2022-09-30T21:03:10.319Z,13.25
2022-09-30T21:05:40.426Z,12.77
2022-09-30T21:08:08.420Z,11.50
2022-09-30T21:10:38.668Z,12.30
2022-09-30T21:13:11.309Z,14.98
2022-09-30T21:15:39.927Z,12.35
2022-09-30T21:18:08.294Z,12.90
2022-09-30T21:20:36.556Z,13.77
2022-09-30T21:23:05.901Z,16.42
2022-09-30T21:25:34.417Z,11.98
2022-09-30T21:28:03.348Z,13.20
2022-09-30T21:30:31.406Z,11.68
2022-09-30T21:32:59.307Z,12.82
2022-09-30T21:35:27.356Z,16.88
2022-09-30T21:37:55.312Z,18.95
2022-09-30T21:40:24.656Z,18.15
2022-09-30T21:42:52.632Z,14.48
2022-09-30T21:45:20.659Z,27.15
2022-09-30T21:47:49.902Z,30.10
2022-09-30T21:50:18.225Z,32.53
2022-09-30T21:52:47.361Z,40.08
2022-09-30T21:55:15.478Z,41.22
2022-09-30T21:57:45.943Z,25.30
2022-09-30T22:00:14.340Z,23.63
2022-09-30T22:02:42.291Z,21.42
2022-09-30T22:05:11.267Z,19.33
2022-09-30T22:07:39.455Z,17.23
2022-09-30T22:10:09.111Z,17.23
2022-09-30T22:12:37.175Z,18.30
2022-09-30T22:15:07.900Z,16.40
2022-09-30T22:17:35.845Z,15.15
2022-09-30T22:20:03.822Z,13.98
2022-09-30T22:22:31.778Z,19.17
2022-09-30T22:24:59.761Z,14.98
2022-09-30T22:27:28.115Z,14.20
2022-09-30T22:29:56.172Z,18.25
2022-09-30T22:32:25.524Z,17.98
2022-09-30T22:35:10.758Z,17.88
2022-09-30T22:38:01.391Z,17.45
2022-09-30T22:40:29.354Z,17.67
2022-09-30T22:42:57.841Z,17.33
2022-09-30T22:45:25.961Z,13.60
2022-09-30T22:47:57.012Z,13.25
2022-09-30T22:50:28.915Z,14.65
2022-09-30T22:52:58.121Z,14.60
2022-09-30T22:55:26.096Z,15.10
2022-09-30T22:57:54.028Z,15.20
2022-09-30T23:00:21.982Z,14.32
2022-09-30T23:02:52.862Z,14.63
2022-09-30T23:05:22.238Z,12.60
2022-09-30T23:07:50.388Z,16.35
2022-09-30T23:10:18.588Z,15.02
2022-09-30T23:12:46.767Z,15.50
2022-09-30T23:15:14.922Z,20.27
2022-09-30T23:17:43.097Z,22.45
2022-09-30T23:20:11.095Z,16.45
2022-09-30T23:22:40.392Z,20.92
2022-09-30T23:25:09.336Z,20.08
2022-09-30T23:27:37.294Z,16.60
2022-09-30T23:30:05.992Z,15.00
2022-09-30T23:32:33.919Z,16.00
2022-09-30T23:35:01.930Z,15.27
2022-09-30T23:37:30.082Z,14.07
2022-09-30T23:39:59.479Z,14.13
2022-09-30T23:42:31.893Z,14.57
2022-09-30T23:44:59.866Z,18.63
2022-09-30T23:47:28.589Z,15.27
2022-09-30T23:49:58.257Z,14.55
2022-09-30T23:52:26.441Z,14.85
2022-09-30T23:54:54.508Z,17.02
2022-09-30T23:57:24.060Z,17.08
2022-09-30T23:59:51.993Z,21.83
